Flight Track Log - Related Links

Times and Time Zones

All times are in EDT time to prevent confusion due to time zone crossing. See the CTL13 flight status page for this flight to view local times or setup timezone preferences in your user account.

Time Position Orientation Groundspeed Altitude Reporting Facility
EDT Latitude Longitude Course Direction KTS MPH feet Rate Location/Type
Tue 06:40:28 PM 41.5336 -81.6817 346° North 119 137 1,400  Level Cleveland Center
Tue 06:41:17 PM 41.5586 -81.6903 346° North 128 147 2,100 991 Climbing Cleveland Center
Tue 06:42:17 PM 41.5789 -81.7378 300° West 143 165 3,200 893 Climbing Cleveland Center
Tue 06:43:18 PM 41.5992 -81.7856 300° West 151 174 3,900 545 Climbing Cleveland Center
Tue 06:44:18 PM 41.6050 -81.8439 278° West 161 185 4,300 446 Climbing Cleveland Center
Tue 06:45:19 PM 41.6042 -81.9022 269° West 158 182 4,800 443 Climbing Cleveland Center
Tue 06:46:20 PM 41.5889 -81.9572 250° West 164 189 5,200 397 Climbing Cleveland Center
Tue 06:47:20 PM 41.5653 -82.0125 240° Southwest 166 191 5,600 397 Climbing Cleveland Center
Tue 06:48:21 PM 41.5439 -82.0703 244° Southwest 169 194 6,000 344 Climbing Cleveland Center
Tue 06:49:22 PM 41.5200 -82.1278 241° Southwest 176 203 6,300 298 Climbing Cleveland Center
Tue 06:50:22 PM 41.4964 -82.1856 241° Southwest 175 201 6,600 248 Climbing Cleveland Center
Tue 06:51:23 PM 41.4767 -82.2433 246° West 176 203 6,800 246 Climbing Cleveland Center
Tue 06:52:24 PM 41.4531 -82.3008 241° Southwest 175 201 7,100 351 Climbing Cleveland Center
Tue 06:54:31 PM 41.4061 -82.4103 240° Southwest 169 194 7,900 317 Climbing Indianapolis Center
Tue 06:55:33 PM 41.3825 -82.4658 240° Southwest 169 194 8,100 97 Climbing Indianapolis Center
Tue 06:56:35 PM 41.3583 -82.5256 242° Southwest 179 206 8,100  Level Indianapolis Center
Tue 06:57:37 PM 41.3342 -82.5836 241° Southwest 179 206 8,100  Level Indianapolis Center
Tue 06:58:39 PM 41.3072 -82.6503 242° Southwest 175 201 8,100 -48 Level Indianapolis Center
Tue 06:59:41 PM 41.2856 -82.7092 244° Southwest 175 201 8,000 -48 Descending Indianapolis Center
Tue 07:00:43 PM 41.2600 -82.7647 239° Southwest 176 203 8,000  Level Indianapolis Center
Tue 07:01:45 PM 41.2339 -82.8197 238° Southwest 174 200 8,000  Level Indianapolis Center
Tue 07:02:47 PM 41.2147 -82.8808 247° West 178 205 8,000  Level Indianapolis Center
Tue 07:03:49 PM 41.1967 -82.9408 248° West 177 204 8,000  Level Indianapolis Center
Tue 07:04:51 PM 41.1758 -83.0122 249° West 177 204 8,000  Level Indianapolis Center
Tue 07:05:54 PM 41.1581 -83.0744 249° West 178 205 8,000  Level Indianapolis Center
Tue 07:06:56 PM 41.1425 -83.1386 252° West 181 208 8,000 -48 Level Indianapolis Center
Tue 07:07:58 PM 41.1264 -83.2003 251° West 177 204 7,900  Descending Indianapolis Center
Tue 07:08:36 PM 41.1183 -83.2428 256° West 174 200 8,000  Climbing Chicago Center
Tue 07:09:00 PM 41.1106 -83.2628 243° Southwest 177 204 7,900  Descending Indianapolis Center
Tue 07:10:02 PM 41.0928 -83.3250 249° West 179 206 8,000 48 Climbing Indianapolis Center
Tue 07:11:04 PM 41.0747 -83.3847 248° West 175 201 8,000 -339 Level Indianapolis Center
Tue 07:12:06 PM 41.0481 -83.4564 244° Southwest 182 209 7,300 -677 Descending Indianapolis Center
Tue 07:13:08 PM 41.0250 -83.5172 243° Southwest 198 228 6,600 -629 Descending Indianapolis Center
Tue 07:14:10 PM 41.0003 -83.5828 243° Southwest 199 229 6,000 -387 Descending Indianapolis Center
Tue 07:15:12 PM 40.9772 -83.6581 248° West 190 219 5,800 -242 Descending Indianapolis Center
Tue 07:16:14 PM 40.9583 -83.7208 248° West 184 212 5,500 -290 Descending Indianapolis Center
Tue 07:17:16 PM 40.9367 -83.7844 246° West 188 216 5,200 -290 Descending Indianapolis Center
Tue 07:18:18 PM 40.9089 -83.8433 238° Southwest 188 216 4,900 -290 Descending Indianapolis Center
Tue 07:19:20 PM 40.8839 -83.9069 243° Southwest 190 219 4,600 -339 Descending Indianapolis Center
Tue 07:20:22 PM 40.8594 -83.9694 243° Southwest 190 219 4,200 -339 Descending Indianapolis Center
Tue 07:21:24 PM 40.8344 -84.0336 243° Southwest 192 221 3,900 -97 Descending Indianapolis Center
Tue 07:22:26 PM 40.8044 -84.1044 241° Southwest 191 220 4,000 48 Climbing Indianapolis Center
Tue 07:23:28 PM 40.7792 -84.1631 240° Southwest 188 216 4,000  Level Indianapolis Center
Tue 07:24:30 PM 40.7539 -84.2194 239° Southwest 183 211 4,000  Level Indianapolis Center
Tue 07:25:32 PM 40.7275 -84.2789 240° Southwest 183 211 4,000  Level Indianapolis Center
Tue 07:26:34 PM 40.7044 -84.3389 243° Southwest 184 212 4,000  Level Indianapolis Center
Tue 07:27:11 PM 40.6858 -84.3778 238° Southwest 183 211 4,000  Level Indianapolis Center
Tue 07:28:13 PM 40.6531 -84.4411 236° Southwest 185 213 4,000  Level Indianapolis Center
Tue 07:29:15 PM 40.6350 -84.4911 245° Southwest 180 207 4,000  Level Indianapolis Center
Tue 07:30:16 PM 40.6006 -84.5406 227° Southwest 178 205 4,000  Level Indianapolis Center
Tue 07:31:18 PM 40.5661 -84.5856 225° Southwest 175 201 4,000  Level Indianapolis Center
Tue 07:32:20 PM 40.5286 -84.6322 223° Southwest 178 205 4,000  Level Indianapolis Center
Tue 07:33:22 PM 40.4869 -84.6856 224° Southwest 181 208 4,000  Level Indianapolis Center
Tue 07:34:24 PM 40.4533 -84.7303 225° Southwest 175 201 4,000 -36 Level Indianapolis Center
Tue 07:36:11 PM 40.3889 -84.8147 225° Southwest 186 214 3,900 -36 Descending Indianapolis Center
Tue 07:37:11 PM 40.3492 -84.8611 222° Southwest 183 211 3,900  Level Indianapolis Center

Login

Don't have an account? Register now (free) for customized features, flight alerts, and more!